createdAt,value
2018-03-06T00:00:53.191Z,52.20
2018-03-06T00:03:20.785Z,52.40
2018-03-06T00:05:48.377Z,52.50
2018-03-06T00:08:15.974Z,52.60
2018-03-06T00:10:43.551Z,52.70
2018-03-06T00:13:11.130Z,52.60
2018-03-06T00:15:38.736Z,52.60
2018-03-06T00:18:06.297Z,52.30
2018-03-06T00:20:33.921Z,52.20
2018-03-06T00:23:01.470Z,51.80
2018-03-06T00:25:29.062Z,51.70
2018-03-06T00:27:57.393Z,52.60
2018-03-06T00:30:24.968Z,52.50
2018-03-06T00:32:52.527Z,52.60
2018-03-06T00:35:20.121Z,52.50
2018-03-06T00:37:48.431Z,53.40
2018-03-06T00:40:16.060Z,53.30
2018-03-06T00:42:43.623Z,53.50
2018-03-06T00:45:11.163Z,53.70
2018-03-06T00:47:38.741Z,53.40
2018-03-06T00:50:06.332Z,53.20
2018-03-06T00:52:33.923Z,52.90
2018-03-06T00:55:01.557Z,52.70
2018-03-06T00:57:29.098Z,52.70
2018-03-06T00:59:56.664Z,52.50
2018-03-06T01:02:24.253Z,52.60
2018-03-06T01:04:51.821Z,53.00
2018-03-06T01:07:19.399Z,52.70
2018-03-06T01:09:46.989Z,52.80
2018-03-06T01:12:15.329Z,52.10
2018-03-06T01:14:42.896Z,52.00
2018-03-06T01:17:10.488Z,51.80
2018-03-06T01:19:38.071Z,52.00
2018-03-06T01:22:05.637Z,52.00
2018-03-06T01:24:33.240Z,52.10
2018-03-06T01:27:00.788Z,52.20
2018-03-06T01:29:28.373Z,52.10
2018-03-06T01:31:55.965Z,52.20
2018-03-06T01:34:23.526Z,52.20
2018-03-06T01:36:51.129Z,52.20
2018-03-06T01:39:18.713Z,52.40
2018-03-06T01:41:47.026Z,52.60
2018-03-06T01:44:14.641Z,52.60
2018-03-06T01:46:42.233Z,52.70
2018-03-06T01:49:10.144Z,52.50
2018-03-06T01:51:49.458Z,52.20
2018-03-06T01:54:17.048Z,52.20
2018-03-06T01:56:44.621Z,52.10
2018-03-06T01:59:12.220Z,52.10
2018-03-06T02:01:39.822Z,51.10
2018-03-06T02:04:07.399Z,52.00
2018-03-06T02:06:34.991Z,52.10
2018-03-06T02:09:02.600Z,52.00
2018-03-06T02:11:30.161Z,52.00
2018-03-06T02:13:57.790Z,52.10
2018-03-06T02:16:25.369Z,52.20
2018-03-06T02:18:52.952Z,52.20
2018-03-06T02:21:20.565Z,52.00
2018-03-06T02:23:48.113Z,52.10
2018-03-06T02:26:15.704Z,52.00
2018-03-06T02:28:43.339Z,52.00
2018-03-06T02:31:10.907Z,51.90
2018-03-06T02:33:38.492Z,52.00
2018-03-06T02:36:06.100Z,52.00
2018-03-06T02:38:34.460Z,51.90
2018-03-06T02:41:02.072Z,51.90
2018-03-06T02:43:29.664Z,52.00
2018-03-06T02:46:12.538Z,52.00
2018-03-06T02:48:40.934Z,52.00
2018-03-06T02:51:08.490Z,52.00
2018-03-06T02:53:36.085Z,52.10
2018-03-06T02:56:03.714Z,52.10
2018-03-06T02:58:31.282Z,52.00
2018-03-06T03:00:58.941Z,52.00
2018-03-06T03:03:26.544Z,52.40
2018-03-06T03:05:54.124Z,53.00
2018-03-06T03:08:21.675Z,53.10
2018-03-06T03:10:49.281Z,52.50
2018-03-06T03:13:16.820Z,52.50
2018-03-06T03:15:44.405Z,52.90
2018-03-06T03:18:11.994Z,52.90
2018-03-06T03:20:39.600Z,52.90
2018-03-06T03:23:07.180Z,52.80
2018-03-06T03:25:35.052Z,53.00
2018-03-06T03:28:02.661Z,53.00
2018-03-06T03:30:30.250Z,53.00
2018-03-06T03:32:57.894Z,53.00
2018-03-06T03:35:26.228Z,52.10
2018-03-06T03:37:53.804Z,52.00
2018-03-06T03:40:21.380Z,52.10
2018-03-06T03:42:48.957Z,52.20
2018-03-06T03:45:17.332Z,52.20
2018-03-06T03:47:45.650Z,52.90
2018-03-06T03:50:13.187Z,52.30
2018-03-06T03:52:40.850Z,52.30
2018-03-06T03:55:08.405Z,52.40
2018-03-06T03:57:36.774Z,52.50
2018-03-06T04:00:05.121Z,52.60
2018-03-06T04:02:32.701Z,52.60
2018-03-06T04:05:00.248Z,52.60
2018-03-06T04:07:27.845Z,52.40
2018-03-06T04:09:56.213Z,52.90
2018-03-06T04:12:24.551Z,53.10
2018-03-06T04:14:52.124Z,53.10
2018-03-06T04:17:19.864Z,53.10
2018-03-06T04:19:48.205Z,53.30
2018-03-06T04:22:16.535Z,54.30
2018-03-06T04:24:44.137Z,52.90
2018-03-06T04:27:11.702Z,52.80
2018-03-06T04:29:39.310Z,53.20
2018-03-06T04:32:06.872Z,53.10
2018-03-06T04:34:34.478Z,53.40
2018-03-06T04:37:02.798Z,53.20
2018-03-06T04:39:30.380Z,53.10
2018-03-06T04:41:57.930Z,53.10
2018-03-06T04:44:25.540Z,52.90
2018-03-06T04:46:53.105Z,52.80
2018-03-06T04:49:20.672Z,52.00
2018-03-06T04:51:48.263Z,52.30
2018-03-06T04:54:15.921Z,52.10
2018-03-06T04:56:43.533Z,52.00
2018-03-06T04:59:11.130Z,52.10
2018-03-06T05:01:38.788Z,52.10
2018-03-06T05:04:06.350Z,52.20
2018-03-06T05:06:33.936Z,52.30
2018-03-06T05:09:01.552Z,52.60
2018-03-06T05:11:29.144Z,52.60
2018-03-06T05:13:56.734Z,52.90
2018-03-06T05:16:24.289Z,52.60
2018-03-06T05:18:51.939Z,52.20
2018-03-06T05:21:19.488Z,52.00
2018-03-06T05:23:47.066Z,52.40
2018-03-06T05:26:14.628Z,52.70
2018-03-06T05:28:42.197Z,52.90
2018-03-06T05:31:09.890Z,52.70
2018-03-06T05:33:37.517Z,52.70
2018-03-06T05:36:05.112Z,52.60
2018-03-06T05:38:32.681Z,52.60
2018-03-06T05:41:00.265Z,52.70
2018-03-06T05:43:27.857Z,52.80
2018-03-06T05:45:55.425Z,53.00
2018-03-06T05:48:23.964Z,52.70
2018-03-06T05:50:51.526Z,52.60
2018-03-06T05:53:19.109Z,52.30
2018-03-06T05:55:46.736Z,52.40
2018-03-06T05:58:14.313Z,52.50
2018-03-06T06:00:41.985Z,52.60
2018-03-06T06:03:09.569Z,52.60
2018-03-06T06:05:37.980Z,52.50
2018-03-06T06:08:05.573Z,52.60
2018-03-06T06:10:33.223Z,52.50
2018-03-06T06:13:01.156Z,52.50
2018-03-06T06:15:28.747Z,52.50
2018-03-06T06:17:56.343Z,52.40
2018-03-06T06:20:23.911Z,52.60
2018-03-06T06:22:51.609Z,52.80
2018-03-06T06:25:19.201Z,52.60
2018-03-06T06:27:46.757Z,52.80
2018-03-06T06:30:14.360Z,52.60
2018-03-06T06:32:42.751Z,52.70
2018-03-06T06:35:10.293Z,52.80
2018-03-06T06:37:37.956Z,52.90
2018-03-06T06:40:05.494Z,52.80
2018-03-06T06:42:33.101Z,52.90
2018-03-06T06:45:00.840Z,52.90
2018-03-06T06:47:28.481Z,52.80
2018-03-06T06:49:56.063Z,52.60
2018-03-06T06:52:23.697Z,52.60
2018-03-06T06:54:51.193Z,52.70
2018-03-06T06:57:18.843Z,52.60
2018-03-06T06:59:46.408Z,52.50
2018-03-06T07:02:14.197Z,52.60
2018-03-06T07:04:41.749Z,52.60
2018-03-06T07:07:09.313Z,52.80
2018-03-06T07:09:36.877Z,52.80
2018-03-06T07:12:04.433Z,52.80
2018-03-06T07:14:32.109Z,52.90
2018-03-06T07:16:59.730Z,52.90
2018-03-06T07:19:27.318Z,52.80
2018-03-06T07:21:54.893Z,52.70
2018-03-06T07:24:23.857Z,52.50
2018-03-06T07:26:51.426Z,52.90
2018-03-06T07:29:19.035Z,52.90
2018-03-06T07:31:46.914Z,52.90
2018-03-06T07:34:14.510Z,52.80
2018-03-06T07:36:42.089Z,52.80
2018-03-06T07:39:09.720Z,53.00
2018-03-06T07:41:37.486Z,52.70
2018-03-06T07:44:05.054Z,52.50
2018-03-06T07:46:33.172Z,52.70
2018-03-06T07:49:00.778Z,52.90
2018-03-06T07:51:28.413Z,52.90
2018-03-06T07:53:56.025Z,53.00
2018-03-06T07:56:23.599Z,53.00
2018-03-06T07:58:51.360Z,52.50
2018-03-06T08:01:19.001Z,52.80
2018-03-06T08:03:46.586Z,52.70
2018-03-06T08:06:14.130Z,52.70
2018-03-06T08:08:41.685Z,52.40
2018-03-06T08:11:09.434Z,52.20
2018-03-06T08:13:37.007Z,52.10
2018-03-06T08:16:04.558Z,52.10
2018-03-06T08:18:32.211Z,52.50
2018-03-06T08:21:00.562Z,52.00
2018-03-06T08:23:28.157Z,52.00
2018-03-06T08:25:55.749Z,52.60
2018-03-06T08:28:24.048Z,51.70
2018-03-06T08:30:51.845Z,51.70
2018-03-06T08:33:19.452Z,51.80
2018-03-06T08:35:47.026Z,51.60
2018-03-06T08:38:14.695Z,51.20
2018-03-06T08:40:42.350Z,50.90
2018-03-06T08:43:11.416Z,50.80
2018-03-06T08:45:38.998Z,50.70
2018-03-06T08:48:06.942Z,50.80
2018-03-06T08:50:34.541Z,50.90
2018-03-06T08:53:02.233Z,51.00
2018-03-06T08:55:29.799Z,51.10
2018-03-06T08:57:57.539Z,50.90
2018-03-06T09:00:25.351Z,50.60
2018-03-06T09:02:53.727Z,50.30
2018-03-06T09:05:21.285Z,50.30
2018-03-06T09:07:48.881Z,50.00
2018-03-06T09:10:16.587Z,49.90
2018-03-06T09:12:44.178Z,49.60
2018-03-06T09:15:11.778Z,49.90
2018-03-06T09:17:39.390Z,49.90
2018-03-06T09:20:07.028Z,49.80
2018-03-06T09:22:34.560Z,49.80
2018-03-06T09:25:02.214Z,49.60
2018-03-06T09:27:30.637Z,49.60
2018-03-06T09:29:58.175Z,49.70
2018-03-06T09:32:25.779Z,49.60
2018-03-06T09:34:53.314Z,49.60
2018-03-06T09:37:20.954Z,49.80
2018-03-06T09:39:48.485Z,49.50
2018-03-06T09:42:16.142Z,49.30
2018-03-06T09:44:43.764Z,49.30
2018-03-06T09:47:11.365Z,49.80
2018-03-06T09:49:39.010Z,48.90
2018-03-06T09:52:06.829Z,48.90
2018-03-06T09:54:34.422Z,49.10
2018-03-06T09:57:01.981Z,49.20
2018-03-06T09:59:29.595Z,49.10
2018-03-06T10:01:57.246Z,49.10
2018-03-06T10:04:24.798Z,49.10
2018-03-06T10:06:53.160Z,49.10
2018-03-06T10:09:21.501Z,48.90
2018-03-06T10:11:49.322Z,48.80
2018-03-06T10:14:17.747Z,49.10
2018-03-06T10:16:45.291Z,49.10
2018-03-06T10:19:12.869Z,49.20
2018-03-06T10:21:40.460Z,48.80
2018-03-06T10:24:08.028Z,48.90
2018-03-06T10:26:35.598Z,49.60
2018-03-06T10:29:03.272Z,48.90
2018-03-06T10:31:30.859Z,48.90
2018-03-06T10:33:58.520Z,48.60
2018-03-06T10:36:26.081Z,48.90
2018-03-06T10:38:53.720Z,48.90
2018-03-06T10:41:21.577Z,49.00
2018-03-06T10:43:49.914Z,49.00
2018-03-06T10:46:17.651Z,49.00
2018-03-06T10:48:45.234Z,48.90
2018-03-06T10:51:12.866Z,48.70
2018-03-06T10:53:40.451Z,48.80
2018-03-06T10:56:08.099Z,48.90
2018-03-06T10:58:35.798Z,48.90
2018-03-06T11:01:03.472Z,48.80
2018-03-06T11:03:31.080Z,48.70
2018-03-06T11:05:58.669Z,48.90
2018-03-06T11:08:26.236Z,48.80
2018-03-06T11:10:53.862Z,48.70
2018-03-06T11:13:21.552Z,48.80
2018-03-06T11:15:49.091Z,48.80
2018-03-06T11:18:16.769Z,48.70
2018-03-06T11:20:44.328Z,48.70
2018-03-06T11:23:12.299Z,48.70
2018-03-06T11:25:39.964Z,48.50
2018-03-06T11:28:07.522Z,48.40
2018-03-06T11:30:35.173Z,48.50
2018-03-06T11:33:02.903Z,48.20
2018-03-06T11:35:30.464Z,48.00
2018-03-06T11:37:58.020Z,48.20
2018-03-06T11:40:26.352Z,48.20
2018-03-06T11:42:53.907Z,48.20
2018-03-06T11:45:21.523Z,47.30
2018-03-06T11:47:49.117Z,48.00
2018-03-06T11:50:16.741Z,47.00
2018-03-06T11:52:44.955Z,46.90
2018-03-06T11:55:12.524Z,47.00
2018-03-06T11:57:40.092Z,46.90
2018-03-06T12:00:08.383Z,46.80
2018-03-06T12:02:36.338Z,46.80
2018-03-06T12:05:03.955Z,46.70
2018-03-06T12:07:31.544Z,46.90
2018-03-06T12:09:59.120Z,47.00
2018-03-06T12:12:26.734Z,47.20
2018-03-06T12:14:54.296Z,47.20
2018-03-06T12:17:21.960Z,47.10
2018-03-06T12:19:49.516Z,46.90
2018-03-06T12:22:17.123Z,47.00
2018-03-06T12:24:44.833Z,47.00
2018-03-06T12:27:12.440Z,47.00
2018-03-06T12:29:39.971Z,46.70
2018-03-06T12:32:07.569Z,46.70
2018-03-06T12:34:35.254Z,46.50
2018-03-06T12:37:02.879Z,46.40
2018-03-06T12:39:30.507Z,46.70
2018-03-06T12:41:58.107Z,46.50
2018-03-06T12:44:25.678Z,46.30
2018-03-06T12:46:54.143Z,46.40
2018-03-06T12:49:21.746Z,46.50
2018-03-06T12:51:50.309Z,46.70
2018-03-06T12:54:17.904Z,46.60
2018-03-06T12:56:45.539Z,46.20
2018-03-06T12:59:13.202Z,46.10
2018-03-06T13:01:40.836Z,45.50
2018-03-06T13:04:08.570Z,45.30
2018-03-06T13:06:36.238Z,45.40
2018-03-06T13:09:03.791Z,45.50
2018-03-06T13:11:31.429Z,45.70
2018-03-06T13:13:59.450Z,45.80
2018-03-06T13:16:27.072Z,45.90
2018-03-06T13:18:54.659Z,45.50
2018-03-06T13:21:22.239Z,45.20
2018-03-06T13:23:49.900Z,45.40
2018-03-06T13:26:17.900Z,45.40
2018-03-06T13:28:45.497Z,45.50
2018-03-06T13:31:13.084Z,45.50
2018-03-06T13:33:40.814Z,45.40
2018-03-06T13:36:08.442Z,45.30
2018-03-06T13:38:36.017Z,45.50
2018-03-06T13:41:03.649Z,45.40
2018-03-06T13:43:31.273Z,45.60
2018-03-06T13:45:58.868Z,45.40
2018-03-06T13:48:27.246Z,44.80
2018-03-06T13:50:54.833Z,44.80
2018-03-06T13:53:23.251Z,45.00
2018-03-06T13:55:50.871Z,45.00
2018-03-06T13:58:18.463Z,44.70
2018-03-06T14:00:46.190Z,44.70
2018-03-06T14:03:14.039Z,45.10
2018-03-06T14:05:41.600Z,45.00
2018-03-06T14:08:09.239Z,45.00
2018-03-06T14:10:36.830Z,45.00
2018-03-06T14:13:04.436Z,44.90
2018-03-06T14:15:32.093Z,45.00
2018-03-06T14:17:59.685Z,45.00
2018-03-06T14:20:27.277Z,44.90
2018-03-06T14:22:55.013Z,44.90
2018-03-06T14:25:22.584Z,45.00
2018-03-06T14:27:50.177Z,45.00
2018-03-06T14:30:17.773Z,44.90
2018-03-06T14:32:45.533Z,44.90
2018-03-06T14:35:13.116Z,45.00
2018-03-06T14:37:40.763Z,44.90
2018-03-06T14:40:08.354Z,44.90
2018-03-06T14:42:36.060Z,45.00
2018-03-06T14:45:04.428Z,44.80
2018-03-06T14:47:32.759Z,44.60
2018-03-06T14:50:00.361Z,44.70
2018-03-06T14:52:28.024Z,44.70
2018-03-06T14:54:55.640Z,44.60
2018-03-06T14:57:23.347Z,44.70
2018-03-06T14:59:50.896Z,44.80
2018-03-06T15:02:18.485Z,44.80
2018-03-06T15:04:46.884Z,45.00
2018-03-06T15:07:14.466Z,44.90
2018-03-06T15:09:42.031Z,45.00
2018-03-06T15:12:09.668Z,44.70
2018-03-06T15:14:37.365Z,44.90
2018-03-06T15:17:05.110Z,44.90
2018-03-06T15:19:32.796Z,45.00
2018-03-06T15:22:00.345Z,45.00
2018-03-06T15:24:27.941Z,45.00
2018-03-06T15:26:55.865Z,44.80
2018-03-06T15:29:24.042Z,44.90
2018-03-06T15:31:51.666Z,44.90
2018-03-06T15:34:20.101Z,45.00
2018-03-06T15:36:47.880Z,45.00
2018-03-06T15:39:15.631Z,44.90
2018-03-06T15:41:43.389Z,44.90
2018-03-06T15:44:10.966Z,44.70
2018-03-06T15:46:38.510Z,44.80
2018-03-06T15:49:06.048Z,45.10
2018-03-06T15:51:34.050Z,45.30
2018-03-06T15:54:02.387Z,45.20
2018-03-06T15:56:29.979Z,45.10
2018-03-06T15:58:58.601Z,44.90
2018-03-06T16:01:26.950Z,45.00
2018-03-06T16:03:54.706Z,45.00
2018-03-06T16:06:24.317Z,45.00
2018-03-06T16:08:51.875Z,45.30
2018-03-06T16:11:19.484Z,45.40
2018-03-06T16:13:47.092Z,45.40
2018-03-06T16:16:14.819Z,45.50
2018-03-06T16:18:42.408Z,45.50
2018-03-06T16:21:09.977Z,45.60
2018-03-06T16:23:37.622Z,45.50
2018-03-06T16:26:05.450Z,45.40
2018-03-06T16:28:33.338Z,45.30
2018-03-06T16:31:01.360Z,45.30
2018-03-06T16:33:28.924Z,45.00
2018-03-06T16:35:56.522Z,45.10
2018-03-06T16:38:24.237Z,45.10
2018-03-06T16:40:52.046Z,45.10
2018-03-06T16:43:19.604Z,45.30
2018-03-06T16:45:47.985Z,45.10
2018-03-06T16:48:16.305Z,45.20
2018-03-06T16:50:43.868Z,45.10
2018-03-06T16:53:11.411Z,45.20
2018-03-06T16:55:39.058Z,45.30
2018-03-06T16:58:06.624Z,45.30
2018-03-06T17:00:34.243Z,45.40
2018-03-06T17:03:02.598Z,45.40
2018-03-06T17:05:30.174Z,45.40
2018-03-06T17:07:57.773Z,45.30
2018-03-06T17:10:25.376Z,45.40
2018-03-06T17:12:52.936Z,45.40
2018-03-06T17:15:20.477Z,45.50
2018-03-06T17:17:48.057Z,45.60
2018-03-06T17:20:15.695Z,45.70
2018-03-06T17:22:43.375Z,45.80
2018-03-06T17:25:10.940Z,46.00
2018-03-06T17:27:38.553Z,45.90
2018-03-06T17:30:06.206Z,45.90
2018-03-06T17:32:34.522Z,46.20
2018-03-06T17:35:02.249Z,46.20
2018-03-06T17:37:29.892Z,46.10
2018-03-06T17:39:59.265Z,46.20
2018-03-06T17:42:26.814Z,46.10
2018-03-06T17:44:54.383Z,46.30
2018-03-06T17:47:21.981Z,46.40
2018-03-06T17:49:49.711Z,46.50
2018-03-06T17:52:17.309Z,46.50
2018-03-06T17:54:45.696Z,46.90
2018-03-06T17:57:13.320Z,46.80
2018-03-06T17:59:40.886Z,47.10
2018-03-06T18:02:08.672Z,47.10
2018-03-06T18:04:37.058Z,47.40
2018-03-06T18:07:05.401Z,47.60
2018-03-06T18:09:32.974Z,47.50
2018-03-06T18:12:00.556Z,47.70
2018-03-06T18:14:28.292Z,47.80
2018-03-06T18:16:55.829Z,47.70
2018-03-06T18:19:23.404Z,47.80
2018-03-06T18:21:51.010Z,48.00
2018-03-06T18:24:18.574Z,48.20
2018-03-06T18:26:46.201Z,49.10
2018-03-06T18:29:13.741Z,49.00
2018-03-06T18:31:41.301Z,49.20
2018-03-06T18:34:08.915Z,49.30
2018-03-06T18:36:36.522Z,49.40
2018-03-06T18:39:04.081Z,50.20
2018-03-06T18:41:31.639Z,49.60
2018-03-06T18:43:59.187Z,49.70
2018-03-06T18:46:26.757Z,49.70
2018-03-06T18:48:54.410Z,49.90
2018-03-06T18:51:21.984Z,50.00
2018-03-06T18:53:49.585Z,50.00
2018-03-06T18:56:17.900Z,50.30
2018-03-06T18:58:46.210Z,50.20
2018-03-06T19:04:27.306Z,50.20
2018-03-06T19:07:12.565Z,50.50
2018-03-06T19:09:40.180Z,50.40
2018-03-06T19:12:07.745Z,50.50
2018-03-06T19:14:35.342Z,50.70
2018-03-06T19:17:03.109Z,50.60
2018-03-06T19:19:30.658Z,50.90
2018-03-06T19:21:58.233Z,50.90
2018-03-06T19:24:25.809Z,51.00
2018-03-06T19:26:53.382Z,51.00
2018-03-06T19:29:20.961Z,50.90
2018-03-06T19:31:48.524Z,51.60
2018-03-06T19:34:16.067Z,50.90
2018-03-06T19:36:43.671Z,50.90
2018-03-06T19:39:11.246Z,51.00
2018-03-06T19:41:38.850Z,51.20
2018-03-06T19:44:07.149Z,51.40
2018-03-06T19:46:34.706Z,51.10
2018-03-06T19:49:02.291Z,51.20
2018-03-06T19:51:29.970Z,51.10
2018-03-06T19:53:57.523Z,51.10
2018-03-06T19:56:25.106Z,51.20
2018-03-06T19:58:52.653Z,51.20
2018-03-06T20:01:20.242Z,51.30
2018-03-06T20:03:47.786Z,51.40
2018-03-06T20:06:15.364Z,51.50
2018-03-06T20:08:42.956Z,51.50
2018-03-06T20:11:10.492Z,51.50
2018-03-06T20:13:38.838Z,51.40
2018-03-06T20:16:06.476Z,51.40
2018-03-06T20:18:34.013Z,51.50
2018-03-06T20:21:01.616Z,51.40
2018-03-06T20:23:29.154Z,51.50
2018-03-06T20:25:59.281Z,51.50
2018-03-06T20:28:26.829Z,51.30
2018-03-06T20:31:00.057Z,51.60
2018-03-06T20:33:27.617Z,51.60
2018-03-06T20:35:55.199Z,51.80
2018-03-06T20:38:29.257Z,51.60
2018-03-06T20:40:56.853Z,51.50
2018-03-06T20:43:24.419Z,51.70
2018-03-06T20:45:57.580Z,51.90
2018-03-06T20:48:25.124Z,52.20
2018-03-06T20:50:52.707Z,52.00
2018-03-06T20:56:27.606Z,51.90
2018-03-06T20:58:55.217Z,52.20
2018-03-06T21:01:22.761Z,51.90
2018-03-06T21:03:50.439Z,51.80
2018-03-06T21:06:18.012Z,51.80
2018-03-06T21:08:45.601Z,51.90
2018-03-06T21:11:13.941Z,52.00
2018-03-06T21:13:41.598Z,52.00
2018-03-06T21:16:09.161Z,52.10
2018-03-06T21:18:36.721Z,51.80
2018-03-06T21:21:04.271Z,52.00
2018-03-06T21:23:31.846Z,52.10
2018-03-06T21:25:59.448Z,52.00
2018-03-06T21:28:27.038Z,52.10
2018-03-06T21:30:54.614Z,51.80
2018-03-06T21:33:22.252Z,51.70
2018-03-06T21:35:49.783Z,51.70
2018-03-06T21:38:18.098Z,51.70
2018-03-06T21:40:45.673Z,51.70
2018-03-06T21:43:13.236Z,51.80
2018-03-06T21:45:40.851Z,52.30
2018-03-06T21:48:09.210Z,52.80
2018-03-06T21:50:36.748Z,52.80
2018-03-06T21:53:04.283Z,52.80
2018-03-06T21:55:32.325Z,52.80
2018-03-06T21:57:59.877Z,53.10
2018-03-06T22:00:27.413Z,53.00
2018-03-06T22:02:54.988Z,53.00
2018-03-06T22:05:22.562Z,53.10
2018-03-06T22:07:50.101Z,53.00
2018-03-06T22:10:18.442Z,52.70
2018-03-06T22:12:45.990Z,52.70
2018-03-06T22:15:13.603Z,52.50
2018-03-06T22:17:41.209Z,52.40
2018-03-06T22:20:08.784Z,52.50
2018-03-06T22:22:36.357Z,52.60
2018-03-06T22:25:03.905Z,52.80
2018-03-06T22:27:31.523Z,52.60
2018-03-06T22:29:59.075Z,52.60
2018-03-06T22:32:27.419Z,52.70
2018-03-06T22:34:54.965Z,52.70
2018-03-06T22:37:22.565Z,52.70
2018-03-06T22:39:50.131Z,52.80
2018-03-06T22:42:18.467Z,53.10
2018-03-06T22:44:46.028Z,53.10
2018-03-06T22:47:13.581Z,53.20
2018-03-06T22:49:41.186Z,53.20
2018-03-06T22:52:09.518Z,53.30
2018-03-06T22:54:37.102Z,53.30
2018-03-06T22:57:04.638Z,53.30
2018-03-06T22:59:32.221Z,53.20
2018-03-06T23:02:00.617Z,53.00
2018-03-06T23:04:28.924Z,53.40
2018-03-06T23:06:56.507Z,53.30
2018-03-06T23:09:24.062Z,53.50
2018-03-06T23:11:51.638Z,54.00
2018-03-06T23:14:19.180Z,54.00
2018-03-06T23:16:46.749Z,54.20
2018-03-06T23:19:14.332Z,54.40
2018-03-06T23:21:41.877Z,54.50
2018-03-06T23:24:09.441Z,54.60
2018-03-06T23:26:36.992Z,54.80
2018-03-06T23:29:04.562Z,55.10
2018-03-06T23:31:32.129Z,54.90
2018-03-06T23:33:59.743Z,54.80
2018-03-06T23:36:27.280Z,54.60
2018-03-06T23:38:54.905Z,54.30
2018-03-06T23:41:22.452Z,54.70
2018-03-06T23:43:50.011Z,54.90
2018-03-06T23:46:17.665Z,55.10
2018-03-06T23:48:45.194Z,55.10
2018-03-06T23:51:12.781Z,55.10
2018-03-06T23:53:40.344Z,55.30
2018-03-06T23:56:07.888Z,55.30
2018-03-06T23:58:35.447Z,55.30
